createdAt,value
2023-03-19T00:02:26.468Z,1.27
2023-03-19T00:04:54.446Z,1.73
2023-03-19T00:07:22.323Z,1.63
2023-03-19T00:09:50.235Z,1.30
2023-03-19T00:12:18.098Z,1.30
2023-03-19T00:14:47.393Z,1.30
2023-03-19T00:17:15.413Z,1.70
2023-03-19T00:19:43.817Z,1.43
2023-03-19T00:22:11.893Z,2.63
2023-03-19T00:24:39.782Z,3.80
2023-03-19T00:27:08.087Z,2.37
2023-03-19T00:29:36.305Z,2.60
2023-03-19T00:32:06.186Z,1.50
2023-03-19T00:34:34.085Z,2.77
2023-03-19T00:37:02.042Z,1.63
2023-03-19T00:39:29.911Z,1.97
2023-03-19T00:41:57.728Z,1.60
2023-03-19T00:44:25.660Z,1.57
2023-03-19T00:46:53.604Z,1.83
2023-03-19T00:49:22.876Z,2.97
2023-03-19T00:51:50.767Z,2.00
2023-03-19T00:54:18.631Z,1.80
2023-03-19T00:56:46.747Z,2.80
2023-03-19T00:59:14.643Z,2.00
2023-03-19T01:01:42.610Z,1.73
2023-03-19T01:04:11.177Z,1.77
2023-03-19T01:06:40.637Z,1.67
2023-03-19T01:09:08.519Z,2.83
2023-03-19T01:11:36.854Z,1.67
2023-03-19T01:14:05.123Z,2.83
2023-03-19T01:16:34.278Z,2.00
2023-03-19T01:19:02.263Z,2.63
2023-03-19T01:21:30.991Z,2.47
2023-03-19T01:24:00.418Z,4.37
2023-03-19T01:26:28.706Z,4.43
2023-03-19T01:28:56.590Z,2.50
2023-03-19T01:31:24.541Z,5.17
2023-03-19T01:33:52.655Z,3.13
2023-03-19T01:36:20.586Z,3.53
2023-03-19T01:38:48.517Z,3.17
2023-03-19T01:41:18.341Z,3.93
2023-03-19T01:43:46.656Z,3.83
2023-03-19T01:46:23.043Z,3.90
2023-03-19T01:48:54.405Z,4.23
2023-03-19T01:51:26.954Z,4.80
2023-03-19T01:53:59.814Z,5.07
2023-03-19T01:56:32.472Z,5.30
2023-03-19T01:59:05.339Z,6.40
2023-03-19T02:01:36.591Z,7.20
2023-03-19T02:04:06.053Z,9.20
2023-03-19T02:06:34.844Z,7.67
2023-03-19T02:09:03.862Z,7.73
2023-03-19T02:11:33.862Z,9.70
2023-03-19T02:14:01.824Z,7.20
2023-03-19T02:16:29.802Z,7.63
2023-03-19T02:18:59.097Z,7.00
2023-03-19T02:21:27.080Z,7.80
2023-03-19T02:24:02.148Z,7.23
2023-03-19T02:26:32.376Z,7.60
2023-03-19T02:29:00.340Z,6.63
2023-03-19T02:31:28.844Z,6.67
2023-03-19T02:34:01.402Z,6.03
2023-03-19T02:36:34.974Z,6.53
2023-03-19T02:39:05.320Z,6.83
2023-03-19T02:41:36.863Z,6.00
2023-03-19T02:44:05.419Z,6.20
2023-03-19T02:46:33.659Z,6.10
2023-03-19T02:49:01.574Z,6.07
2023-03-19T02:51:29.463Z,6.30
2023-03-19T02:53:57.361Z,7.13
2023-03-19T02:56:26.207Z,6.47
2023-03-19T02:58:55.604Z,6.73
2023-03-19T03:01:24.551Z,6.07
2023-03-19T03:03:52.451Z,8.10
2023-03-19T03:06:20.351Z,6.90
2023-03-19T03:08:48.335Z,7.07
2023-03-19T03:11:16.288Z,7.17
2023-03-19T03:13:44.147Z,7.83
2023-03-19T03:16:13.580Z,7.10
2023-03-19T03:18:41.485Z,7.53
2023-03-19T03:21:10.104Z,7.67
2023-03-19T03:23:37.972Z,7.30
2023-03-19T03:26:07.417Z,7.30
2023-03-19T03:28:35.470Z,7.57
2023-03-19T03:31:03.770Z,7.13
2023-03-19T03:33:33.100Z,7.73
2023-03-19T03:36:01.271Z,8.43
2023-03-19T03:38:29.271Z,8.87
2023-03-19T03:40:57.157Z,7.60
2023-03-19T03:43:25.879Z,8.77
2023-03-19T03:45:54.454Z,8.10
2023-03-19T03:48:22.824Z,8.73
2023-03-19T03:50:52.617Z,9.20
2023-03-19T03:53:20.556Z,8.47
2023-03-19T03:55:48.522Z,9.23
2023-03-19T03:58:16.907Z,10.30
2023-03-19T04:00:46.106Z,10.23
2023-03-19T04:03:14.043Z,9.87
2023-03-19T04:05:41.920Z,9.23
2023-03-19T04:08:12.138Z,9.60
2023-03-19T04:10:42.318Z,10.93
2023-03-19T04:13:10.599Z,10.17
2023-03-19T04:15:38.542Z,11.60
2023-03-19T04:18:06.515Z,11.03
2023-03-19T04:20:34.686Z,12.00
2023-03-19T04:23:03.400Z,11.23
2023-03-19T04:25:32.606Z,11.10
2023-03-19T04:28:00.511Z,11.20
2023-03-19T04:30:28.992Z,12.83
2023-03-19T04:32:56.946Z,12.73
2023-03-19T04:35:25.111Z,12.30
2023-03-19T04:37:53.024Z,12.57
2023-03-19T04:40:21.022Z,12.87
2023-03-19T04:42:50.265Z,12.03
2023-03-19T04:45:18.334Z,12.40
2023-03-19T04:47:46.192Z,12.00
2023-03-19T04:50:14.603Z,12.77
2023-03-19T04:52:42.663Z,11.20
2023-03-19T04:55:11.125Z,12.53
2023-03-19T04:57:39.030Z,11.60
2023-03-19T05:00:09.926Z,12.60
2023-03-19T05:02:38.419Z,11.20
2023-03-19T05:05:07.238Z,10.30
2023-03-19T05:07:35.161Z,10.33
2023-03-19T05:10:04.433Z,10.37
2023-03-19T05:12:32.857Z,11.00
2023-03-19T05:15:01.499Z,10.57
2023-03-19T05:17:30.765Z,10.33
2023-03-19T05:20:01.509Z,10.10
2023-03-19T05:22:29.382Z,11.80
2023-03-19T05:25:00.642Z,9.77
2023-03-19T05:27:28.500Z,10.53
2023-03-19T05:29:56.466Z,9.60
2023-03-19T05:32:25.102Z,10.23
2023-03-19T05:34:54.471Z,9.10
2023-03-19T05:37:22.745Z,10.53
2023-03-19T05:39:50.965Z,10.53
2023-03-19T05:42:18.857Z,10.43
2023-03-19T05:44:46.708Z,9.17
2023-03-19T05:47:14.811Z,11.53
2023-03-19T05:49:42.744Z,12.73
2023-03-19T05:52:12.541Z,10.90
2023-03-19T05:54:41.328Z,10.60
2023-03-19T05:57:09.356Z,10.80
2023-03-19T05:59:37.221Z,11.37
2023-03-19T06:02:05.132Z,10.07
2023-03-19T06:04:33.000Z,10.03
2023-03-19T06:07:01.208Z,10.23
2023-03-19T06:09:30.648Z,11.10
2023-03-19T06:11:58.552Z,9.63
2023-03-19T06:14:26.874Z,9.47
2023-03-19T06:16:54.788Z,8.83
2023-03-19T06:19:22.778Z,8.77
2023-03-19T06:21:50.624Z,9.07
2023-03-19T06:24:18.465Z,9.47
2023-03-19T06:26:47.726Z,8.50
2023-03-19T06:29:15.687Z,8.43
2023-03-19T06:31:44.008Z,9.27
2023-03-19T06:34:11.937Z,9.43
2023-03-19T06:36:40.140Z,9.33
2023-03-19T06:39:08.045Z,9.17
2023-03-19T06:41:37.043Z,9.47
2023-03-19T06:44:06.299Z,10.77
2023-03-19T06:46:34.289Z,9.43
2023-03-19T06:49:02.210Z,11.20
2023-03-19T06:51:30.112Z,9.77
2023-03-19T06:53:58.052Z,9.57
2023-03-19T06:56:26.109Z,9.47
2023-03-19T06:58:54.023Z,9.40
2023-03-19T07:01:23.879Z,9.83
2023-03-19T07:03:51.995Z,17.53
2023-03-19T07:06:19.936Z,9.23
2023-03-19T07:08:47.841Z,12.43
2023-03-19T07:11:16.432Z,10.30
2023-03-19T07:13:44.469Z,10.60
2023-03-19T07:16:12.359Z,12.23
2023-03-19T07:18:41.773Z,10.67
2023-03-19T07:21:09.665Z,13.93
2023-03-19T07:23:37.525Z,11.97
2023-03-19T07:26:05.661Z,10.33
2023-03-19T07:28:33.598Z,11.40
2023-03-19T07:31:01.810Z,10.57
2023-03-19T07:33:29.659Z,11.73
2023-03-19T07:35:58.998Z,11.57
2023-03-19T07:38:27.077Z,10.80
2023-03-19T07:41:01.961Z,11.43
2023-03-19T07:43:30.851Z,12.30
2023-03-19T07:45:59.210Z,12.57
2023-03-19T07:48:27.215Z,12.00
2023-03-19T07:50:55.159Z,12.20
2023-03-19T07:53:24.560Z,12.33
2023-03-19T07:55:52.465Z,13.10
2023-03-19T07:58:20.404Z,14.80
2023-03-19T08:00:48.548Z,14.83
2023-03-19T08:03:17.188Z,13.67
2023-03-19T08:05:45.085Z,13.90
2023-03-19T08:08:12.976Z,14.87
2023-03-19T08:10:42.376Z,15.10
2023-03-19T08:13:10.290Z,14.60
2023-03-19T08:15:38.125Z,15.47
2023-03-19T08:18:07.577Z,15.87
2023-03-19T08:20:35.953Z,16.33
2023-03-19T08:23:04.474Z,17.07
2023-03-19T08:25:33.269Z,19.00
2023-03-19T08:28:02.745Z,26.63
2023-03-19T08:30:30.800Z,22.60
2023-03-19T08:32:59.004Z,26.27
2023-03-19T08:35:27.887Z,29.50
2023-03-19T08:37:56.673Z,31.20
2023-03-19T08:40:25.375Z,34.17
2023-03-19T08:42:54.435Z,34.33
2023-03-19T08:45:24.233Z,61.93
2023-03-19T08:47:52.182Z,38.83
2023-03-19T08:50:20.541Z,47.20
2023-03-19T08:52:48.461Z,37.17
2023-03-19T08:55:17.119Z,38.97
2023-03-19T08:57:45.190Z,40.70
2023-03-19T09:00:14.075Z,37.57
2023-03-19T09:02:43.373Z,45.40
2023-03-19T09:05:11.229Z,43.10
2023-03-19T09:07:39.173Z,39.53
2023-03-19T09:10:08.140Z,37.90
2023-03-19T09:12:36.041Z,39.23
2023-03-19T09:15:04.436Z,40.33
2023-03-19T09:17:32.350Z,33.93
2023-03-19T09:20:01.611Z,33.43
2023-03-19T09:22:29.557Z,34.13
2023-03-19T09:24:57.490Z,40.00
2023-03-19T09:27:25.403Z,33.13
2023-03-19T09:29:53.997Z,28.87
2023-03-19T09:32:21.935Z,32.63
2023-03-19T09:34:49.768Z,30.40
2023-03-19T09:37:19.076Z,24.50
2023-03-19T09:39:47.009Z,32.80
2023-03-19T09:42:32.752Z,32.40
2023-03-19T09:45:00.824Z,29.23
2023-03-19T09:47:32.234Z,32.83
2023-03-19T09:50:04.235Z,28.83
2023-03-19T09:52:45.159Z,27.13
2023-03-19T09:55:26.867Z,26.43
2023-03-19T09:57:57.123Z,30.80
2023-03-19T10:00:27.353Z,31.13
2023-03-19T10:03:03.911Z,27.83
2023-03-19T10:05:43.486Z,32.13
2023-03-19T10:08:33.691Z,30.90
2023-03-19T10:11:27.906Z,31.40
2023-03-19T10:14:07.328Z,31.53
2023-03-19T10:16:37.011Z,29.77
2023-03-19T10:19:06.408Z,29.10
2023-03-19T10:21:42.058Z,33.80
2023-03-19T10:24:15.015Z,28.70
2023-03-19T10:26:44.913Z,29.87
2023-03-19T10:29:17.104Z,27.17
2023-03-19T10:31:51.218Z,28.73
2023-03-19T10:34:31.220Z,27.83
2023-03-19T10:37:03.559Z,27.83
2023-03-19T10:39:34.958Z,29.30
2023-03-19T10:42:14.846Z,28.90
2023-03-19T10:44:49.831Z,25.33
2023-03-19T10:47:19.984Z,26.03
2023-03-19T10:49:47.986Z,27.93
2023-03-19T10:52:20.927Z,27.37
2023-03-19T10:54:57.034Z,26.50
2023-03-19T10:57:27.760Z,25.57
2023-03-19T10:59:56.016Z,25.93
2023-03-19T11:02:27.888Z,23.20
2023-03-19T11:05:10.019Z,22.43
2023-03-19T11:07:38.753Z,23.03
2023-03-19T11:10:15.535Z,27.63
2023-03-19T11:12:48.807Z,22.03
2023-03-19T11:15:22.041Z,23.87
2023-03-19T11:17:51.257Z,24.30
2023-03-19T11:20:27.735Z,23.73
2023-03-19T11:22:58.642Z,25.90
2023-03-19T11:25:30.776Z,24.63
2023-03-19T11:28:03.485Z,23.87
2023-03-19T11:30:40.677Z,19.20
2023-03-19T11:33:41.845Z,20.80
2023-03-19T11:36:14.544Z,20.33
2023-03-19T11:38:54.733Z,22.20
2023-03-19T11:41:35.182Z,20.60
2023-03-19T11:44:07.117Z,24.73
2023-03-19T11:46:40.375Z,25.97
2023-03-19T11:49:31.716Z,23.77
2023-03-19T11:52:05.143Z,21.80
2023-03-19T11:54:42.075Z,22.03
2023-03-19T11:57:17.242Z,22.77
2023-03-19T12:00:01.511Z,22.03
2023-03-19T12:02:50.155Z,19.90
2023-03-19T12:05:29.409Z,20.10
2023-03-19T12:08:12.986Z,18.90
2023-03-19T12:10:58.234Z,23.43
2023-03-19T12:13:38.532Z,19.20
2023-03-19T12:16:18.133Z,21.43
2023-03-19T12:19:11.562Z,21.57
2023-03-19T12:21:52.571Z,21.67
2023-03-19T12:24:29.960Z,22.20
2023-03-19T12:27:09.546Z,20.10
2023-03-19T12:29:46.417Z,19.30
2023-03-19T12:32:25.549Z,19.83
2023-03-19T12:34:57.687Z,24.40
2023-03-19T12:37:32.535Z,20.63
2023-03-19T12:40:15.450Z,22.97
2023-03-19T12:42:43.565Z,21.93
2023-03-19T12:45:24.349Z,21.90
2023-03-19T12:47:57.106Z,22.67
2023-03-19T12:50:27.410Z,22.90
2023-03-19T12:52:58.565Z,22.00
2023-03-19T12:55:36.462Z,28.83
2023-03-19T12:58:10.273Z,23.87
2023-03-19T13:00:47.562Z,24.70
2023-03-19T13:03:19.540Z,25.23
2023-03-19T13:05:52.820Z,25.10
2023-03-19T13:08:28.072Z,26.23
2023-03-19T13:10:57.235Z,27.23
2023-03-19T13:13:35.728Z,27.13
2023-03-19T13:16:11.539Z,27.13
2023-03-19T13:18:47.395Z,27.50
2023-03-19T13:21:24.628Z,25.80
2023-03-19T13:24:04.596Z,26.43
2023-03-19T13:26:34.686Z,27.70
2023-03-19T13:29:07.908Z,28.47
2023-03-19T13:31:38.506Z,24.90
2023-03-19T13:34:18.908Z,23.30
2023-03-19T13:36:53.568Z,26.07
2023-03-19T13:39:26.094Z,27.80
2023-03-19T13:42:23.750Z,30.17
2023-03-19T13:44:55.113Z,28.87
2023-03-19T13:47:49.158Z,30.33
2023-03-19T13:50:52.146Z,30.67
2023-03-19T13:53:54.707Z,31.30
2023-03-19T13:56:29.894Z,26.87
2023-03-19T13:59:32.081Z,26.80
2023-03-19T14:02:00.708Z,26.87
2023-03-19T14:04:31.686Z,31.40
2023-03-19T14:07:11.448Z,29.13
2023-03-19T14:09:49.476Z,28.13
2023-03-19T14:12:31.074Z,28.37
2023-03-19T14:15:04.679Z,30.33
2023-03-19T14:17:35.223Z,30.90
2023-03-19T14:20:28.352Z,33.93
2023-03-19T14:23:23.432Z,27.77
2023-03-19T14:26:11.368Z,32.97
2023-03-19T14:28:49.571Z,32.80
2023-03-19T14:31:27.834Z,27.83
2023-03-19T14:34:02.662Z,32.93
2023-03-19T14:36:32.582Z,28.83
2023-03-19T14:39:03.268Z,28.90
2023-03-19T14:41:35.979Z,28.10
2023-03-19T14:44:31.143Z,29.03
2023-03-19T14:47:17.953Z,29.60
2023-03-19T14:50:11.350Z,31.37
2023-03-19T14:52:47.469Z,32.67
2023-03-19T14:55:17.516Z,31.20
2023-03-19T14:57:45.483Z,27.37
2023-03-19T15:00:17.381Z,27.87
2023-03-19T15:02:48.411Z,25.23
2023-03-19T15:05:22.103Z,25.40
2023-03-19T15:07:54.401Z,25.10
2023-03-19T15:10:24.752Z,23.77
2023-03-19T15:13:08.506Z,26.93
2023-03-19T15:15:44.372Z,24.43
2023-03-19T15:18:14.413Z,24.80
2023-03-19T15:20:47.133Z,23.53
2023-03-19T15:23:27.438Z,23.07
2023-03-19T15:25:58.254Z,22.57
2023-03-19T15:28:28.250Z,23.77
2023-03-19T15:31:05.822Z,25.03
2023-03-19T15:33:45.510Z,25.57
2023-03-19T15:36:19.826Z,23.33
2023-03-19T15:38:53.155Z,26.73
2023-03-19T15:41:23.105Z,26.10
2023-03-19T15:43:51.891Z,25.27
2023-03-19T15:46:24.162Z,24.87
2023-03-19T15:48:55.526Z,27.73
2023-03-19T15:51:25.629Z,25.10
2023-03-19T15:53:55.225Z,24.13
2023-03-19T15:56:24.711Z,28.47
2023-03-19T15:58:56.301Z,25.90
2023-03-19T16:01:24.786Z,34.03
2023-03-19T16:03:58.991Z,26.10
2023-03-19T16:06:29.329Z,25.57
2023-03-19T16:09:14.463Z,29.13
2023-03-19T16:11:44.575Z,26.57
2023-03-19T16:14:22.981Z,22.93
2023-03-19T16:16:51.702Z,28.33
2023-03-19T16:19:35.486Z,23.33
2023-03-19T16:22:11.583Z,23.17
2023-03-19T16:24:43.066Z,18.30
2023-03-19T16:27:15.178Z,20.73
2023-03-19T16:29:44.385Z,20.70
2023-03-19T16:32:21.329Z,17.73
2023-03-19T16:34:51.598Z,17.27
2023-03-19T16:37:44.106Z,18.93
2023-03-19T16:40:40.937Z,17.90
2023-03-19T16:43:15.289Z,16.57
2023-03-19T16:45:43.318Z,16.67
2023-03-19T16:48:11.472Z,19.20
2023-03-19T16:50:41.244Z,16.43
2023-03-19T16:53:20.047Z,18.03
2023-03-19T16:55:49.970Z,17.07
2023-03-19T16:58:19.886Z,17.93
2023-03-19T17:00:48.293Z,19.20
2023-03-19T17:03:18.556Z,17.60
2023-03-19T17:05:48.156Z,18.27
2023-03-19T17:08:16.616Z,18.13
2023-03-19T17:10:48.950Z,19.53
2023-03-19T17:13:21.901Z,20.30
2023-03-19T17:15:51.750Z,17.77
2023-03-19T17:18:23.831Z,18.77
2023-03-19T17:20:55.197Z,19.77
2023-03-19T17:23:26.863Z,18.87
2023-03-19T17:25:55.622Z,21.47
2023-03-19T17:28:25.203Z,21.50
2023-03-19T17:30:53.477Z,21.00
2023-03-19T17:33:25.072Z,24.57
2023-03-19T17:35:54.247Z,22.57
2023-03-19T17:38:23.505Z,21.63
2023-03-19T17:40:51.431Z,26.47
2023-03-19T17:43:19.348Z,24.37
2023-03-19T17:45:49.297Z,26.60
2023-03-19T17:48:21.329Z,26.13
2023-03-19T17:50:50.034Z,26.23
2023-03-19T17:53:19.194Z,27.17
2023-03-19T17:55:47.558Z,23.40
2023-03-19T17:58:18.204Z,21.23
2023-03-19T18:00:49.112Z,24.60
2023-03-19T18:03:20.068Z,20.73
2023-03-19T18:05:50.195Z,20.63
2023-03-19T18:08:20.433Z,22.33
2023-03-19T18:10:48.495Z,24.47
2023-03-19T18:13:16.421Z,18.80
2023-03-19T18:15:45.689Z,18.93
2023-03-19T18:18:18.736Z,22.03
2023-03-19T18:20:47.437Z,19.47
2023-03-19T18:23:16.646Z,19.43
2023-03-19T18:25:45.239Z,21.17
2023-03-19T18:28:13.680Z,17.53
2023-03-19T18:30:43.058Z,20.73
2023-03-19T18:33:20.753Z,18.43
2023-03-19T18:35:48.736Z,17.60
2023-03-19T18:38:19.244Z,16.43
2023-03-19T18:40:48.881Z,14.83
2023-03-19T18:43:16.863Z,13.97
2023-03-19T18:45:46.762Z,14.67
2023-03-19T18:48:23.563Z,17.73
2023-03-19T18:50:52.190Z,13.60
2023-03-19T18:53:20.253Z,12.83
2023-03-19T18:55:48.561Z,14.97
2023-03-19T18:58:20.479Z,14.23
2023-03-19T19:00:49.031Z,13.07
2023-03-19T19:03:20.870Z,12.50
2023-03-19T19:05:49.651Z,13.87
2023-03-19T19:08:20.077Z,15.07
2023-03-19T19:10:50.970Z,12.03
2023-03-19T19:13:21.804Z,13.20
2023-03-19T19:15:49.982Z,10.43
2023-03-19T19:18:21.910Z,12.67
2023-03-19T19:20:52.243Z,12.73
2023-03-19T19:23:21.839Z,13.57
2023-03-19T19:25:51.013Z,13.23
2023-03-19T19:28:26.568Z,9.60
2023-03-19T19:30:57.418Z,9.63
2023-03-19T19:33:29.075Z,9.97
2023-03-19T19:35:57.021Z,9.80
2023-03-19T19:38:24.960Z,8.87
2023-03-19T19:40:55.884Z,8.93
2023-03-19T19:43:26.436Z,9.20
2023-03-19T19:45:56.103Z,7.23
2023-03-19T19:48:26.518Z,7.53
2023-03-19T19:50:56.143Z,9.00
2023-03-19T19:53:26.095Z,9.67
2023-03-19T19:55:54.734Z,8.57
2023-03-19T19:58:25.577Z,9.93
2023-03-19T20:01:03.461Z,8.47
2023-03-19T20:03:35.043Z,8.30
2023-03-19T20:06:03.132Z,9.37
2023-03-19T20:08:31.133Z,10.33
2023-03-19T20:10:59.159Z,11.37
2023-03-19T20:13:29.414Z,9.80
2023-03-19T20:15:58.649Z,11.07
2023-03-19T20:18:30.766Z,11.77
2023-03-19T20:21:01.020Z,11.30
2023-03-19T20:23:29.266Z,12.37
2023-03-19T20:25:58.166Z,12.63
2023-03-19T20:28:30.415Z,14.73
2023-03-19T20:30:58.313Z,14.63
2023-03-19T20:33:26.411Z,16.27
2023-03-19T20:35:54.324Z,17.13
2023-03-19T20:38:23.716Z,20.87
2023-03-19T20:40:53.858Z,15.60
2023-03-19T20:43:28.226Z,17.07
2023-03-19T20:45:57.592Z,16.77
2023-03-19T20:48:27.272Z,19.17
2023-03-19T20:50:55.968Z,17.37
2023-03-19T20:53:25.359Z,18.13
2023-03-19T20:55:53.754Z,17.60
2023-03-19T20:58:27.447Z,15.60
2023-03-19T21:00:56.409Z,17.93
2023-03-19T21:03:26.041Z,20.87
2023-03-19T21:05:58.006Z,21.43
2023-03-19T21:08:33.249Z,19.20
2023-03-19T21:11:01.771Z,13.77
2023-03-19T21:13:31.747Z,13.27
2023-03-19T21:15:59.624Z,13.63
2023-03-19T21:18:27.577Z,14.53
2023-03-19T21:20:57.712Z,10.10
2023-03-19T21:23:31.702Z,10.03
2023-03-19T21:26:00.499Z,13.50
2023-03-19T21:28:32.552Z,9.20
2023-03-19T21:31:01.039Z,9.03
2023-03-19T21:33:33.131Z,8.00
2023-03-19T21:36:02.735Z,8.23
2023-03-19T21:38:33.713Z,6.30
2023-03-19T21:41:04.766Z,8.27
2023-03-19T21:43:35.763Z,6.30
2023-03-19T21:46:17.426Z,4.73
2023-03-19T21:48:51.896Z,5.00
2023-03-19T21:51:20.408Z,8.47
2023-03-19T21:53:49.766Z,8.47
2023-03-19T21:56:23.306Z,8.17
2023-03-19T21:58:52.349Z,4.63
2023-03-19T22:01:23.619Z,6.87
2023-03-19T22:03:52.359Z,5.17
2023-03-19T22:06:22.038Z,5.13
2023-03-19T22:08:53.800Z,4.70
2023-03-19T22:11:26.947Z,4.93
2023-03-19T22:13:55.742Z,3.70
2023-03-19T22:16:25.825Z,7.47
2023-03-19T22:18:54.385Z,4.17
2023-03-19T22:21:23.923Z,6.47
2023-03-19T22:23:53.178Z,4.90
2023-03-19T22:26:30.629Z,5.67
2023-03-19T22:29:00.191Z,6.40
2023-03-19T22:31:28.610Z,3.10
2023-03-19T22:33:56.863Z,4.27
2023-03-19T22:36:24.784Z,4.53
2023-03-19T22:38:54.085Z,5.70
2023-03-19T22:41:28.217Z,4.03
2023-03-19T22:43:57.640Z,4.57
2023-03-19T22:46:26.516Z,5.17
2023-03-19T22:48:54.777Z,8.83
2023-03-19T22:51:25.515Z,5.93
2023-03-19T22:53:55.431Z,4.97
2023-03-19T22:56:23.720Z,4.50
2023-03-19T22:58:52.235Z,6.37
2023-03-19T23:01:35.538Z,7.50
2023-03-19T23:04:18.018Z,6.17
2023-03-19T23:06:46.457Z,4.90
2023-03-19T23:09:18.158Z,7.13
2023-03-19T23:11:46.314Z,5.87
2023-03-19T23:14:27.976Z,7.80
2023-03-19T23:19:28.292Z,6.37
2023-03-19T23:21:56.298Z,7.27
2023-03-19T23:24:25.951Z,5.17
2023-03-19T23:26:55.676Z,7.03
2023-03-19T23:29:26.770Z,6.70
2023-03-19T23:31:55.155Z,7.50
2023-03-19T23:34:23.170Z,5.90
2023-03-19T23:36:56.490Z,8.50
2023-03-19T23:39:25.808Z,9.60
2023-03-19T23:41:57.802Z,7.17
2023-03-19T23:44:26.371Z,10.73
2023-03-19T23:46:54.697Z,7.83
2023-03-19T23:49:28.889Z,8.17
2023-03-19T23:51:57.348Z,9.47
2023-03-19T23:54:32.057Z,7.53
2023-03-19T23:57:02.266Z,10.30
2023-03-19T23:59:34.042Z,8.00
